Amboy, WA

2:11 AM PDT on April 27, 2015 (GMT -0700)
Rock Creek Area | | Change Station
CLOSE
Current Station
Personal Weather Station
Location: Battle Ground, WA
Elevation: 420 ft
Nearby Weather Stations

Elev 420 ft 45.85 °N, 122.52 °W | Updated 1 minute ago

Overcast
Overcast
50.2 °F
Feels Like 50.2 °F
N
0.0
Wind Variable Wind from NW
Gusts 0.0 mph

Today
High -- | Low -- °F
--% Chance of Precip.
Yesterday
High -- | Low -- °F
Precip. -- in
6:03 AM 8:12 PM
Waxing Gibbous, 63% visible
Pressure 30.29 in
Visibility 2.0 miles
Clouds Overcast 300 ft
Dew Point 50 °F
Humidity 100%
Rainfall 0.00 in
Snow Depth Not available.
UV 0.0 out of 12
Pollen 9.40 out of 12
Air Quality Not available.
Flu Activity Regional
METAR KSPB 270853Z AUTO 00000KT 2SM BR OVC003 12/11 A3029 RMK AO2 SLP256 60001 T01170106 53002

More Conditions Fewer Conditions

Pressure 30.29 in
Visibility 2.0 miles
Clouds Overcast 300 ft
Dew Point 50 °F
Humidity 100%
Rainfall 0.00 in
Snow Depth Not available.
UV 0.0 out of 12
Pollen 9.40 out of 12
Air Quality Not available.
Flu Activity Regional
METAR KSPB 270853Z AUTO 00000KT 2SM BR OVC003 12/11 A3029 RMK AO2 SLP256 60001 T01170106 53002

More Conditions Fewer Conditions

10-Day Weather Forecast

Almanac

Astronomy

Apr. 27, 2015 Rise Set
Actual Time
Civil Twilight
Nautical Twilight
Astronomical Twilight
Moon
Length of Visible Light
Length of Day
Tomorrow will be .
, % of the Moon is Illuminated

Today's Extremes

State Highs State Lows

Community

WunderPhotos

Upload Photos

1,817,277 photos uploaded!

WunderBlogs® & News

Nearby

Air Quality

  Air Quality AQ Index Pollutant
Not available.

Snow Depth

Station Depth Elevation

Earthquake Activity

City Distance Mag. Time & Date
Minimum magnitude displayed is 2.5.

Coastal Water Temperatures

Place Temperature

Stations

Nearby Weather Stations

Station Location Temp. Windchill Dew Point Humidity Wind Precip. Elev Updated Type